createdAt,value
2018-09-21T00:02:12.633Z,21.40
2018-09-21T00:04:40.970Z,21.30
2018-09-21T00:07:09.173Z,21.00
2018-09-21T00:09:37.426Z,21.00
2018-09-21T00:12:05.654Z,20.80
2018-09-21T00:14:33.858Z,21.00
2018-09-21T00:17:02.135Z,21.10
2018-09-21T00:19:30.363Z,21.10
2018-09-21T00:21:58.586Z,21.00
2018-09-21T00:24:26.818Z,21.30
2018-09-21T00:26:55.022Z,21.40
2018-09-21T00:31:51.296Z,21.10
2018-09-21T00:34:19.562Z,21.20
2018-09-21T00:36:47.775Z,21.30
2018-09-21T00:39:15.999Z,21.30
2018-09-21T00:41:44.341Z,21.30
2018-09-21T00:46:40.585Z,21.30
2018-09-21T00:49:08.886Z,21.20
2018-09-21T00:51:37.111Z,21.10
2018-09-21T00:54:05.309Z,21.10
2018-09-21T00:56:33.578Z,21.30
2018-09-21T00:59:01.778Z,21.20
2018-09-21T01:01:30.130Z,21.10
2018-09-21T01:03:58.366Z,21.20
2018-09-21T01:06:26.630Z,21.20
2018-09-21T01:08:54.845Z,21.30
2018-09-21T01:11:23.090Z,21.30
2018-09-21T01:13:51.290Z,21.00
2018-09-21T01:18:47.753Z,21.20
2018-09-21T01:21:16.006Z,21.20
2018-09-21T01:23:44.379Z,21.10
2018-09-21T01:26:12.648Z,21.00
2018-09-21T01:31:09.072Z,20.90
2018-09-21T01:33:37.457Z,20.90
2018-09-21T01:36:05.729Z,21.10
2018-09-21T01:38:33.926Z,21.00
2018-09-21T01:41:02.213Z,20.90
2018-09-21T01:43:30.437Z,21.00
2018-09-21T01:45:58.659Z,20.90
2018-09-21T01:48:26.916Z,20.90
2018-09-21T01:50:55.158Z,20.90
2018-09-21T01:53:23.382Z,21.00
2018-09-21T01:55:51.609Z,21.00
2018-09-21T01:58:19.876Z,20.90
2018-09-21T02:00:48.109Z,20.90
2018-09-21T02:05:44.334Z,20.80
2018-09-21T02:10:40.509Z,20.80
2018-09-21T02:13:08.733Z,21.10
2018-09-21T02:15:36.999Z,20.80
2018-09-21T02:18:05.240Z,20.90
2018-09-21T02:20:33.453Z,21.00
2018-09-21T02:23:01.781Z,21.00
2018-09-21T02:25:30.697Z,20.80
2018-09-21T02:27:58.948Z,20.80
2018-09-21T02:30:27.134Z,20.80
2018-09-21T02:32:55.339Z,20.70
2018-09-21T02:35:23.618Z,20.70
2018-09-21T02:37:51.810Z,20.80
2018-09-21T02:40:20.038Z,20.70
2018-09-21T02:42:48.378Z,20.70
2018-09-21T02:45:16.586Z,20.60
2018-09-21T02:47:44.919Z,20.50
2018-09-21T02:50:13.157Z,20.50
2018-09-21T02:52:41.374Z,20.50
2018-09-21T02:57:37.542Z,20.50
2018-09-21T03:00:06.606Z,20.60
2018-09-21T03:02:34.806Z,20.50
2018-09-21T03:05:03.034Z,20.40
2018-09-21T03:07:31.273Z,20.40
2018-09-21T03:09:59.527Z,20.40
2018-09-21T03:12:27.725Z,20.30
2018-09-21T03:14:56.254Z,20.40
2018-09-21T03:17:24.502Z,20.40
2018-09-21T03:19:52.996Z,20.50
2018-09-21T03:22:21.249Z,20.50
2018-09-21T03:24:49.582Z,20.50
2018-09-21T03:27:17.813Z,20.50
2018-09-21T03:29:46.078Z,20.50
2018-09-21T03:32:14.309Z,20.40
2018-09-21T03:34:42.676Z,20.40
2018-09-21T03:37:10.882Z,20.40
2018-09-21T03:39:39.093Z,20.40
2018-09-21T03:42:07.322Z,20.30
2018-09-21T03:44:35.530Z,20.50
2018-09-21T03:47:03.780Z,20.40
2018-09-21T03:52:00.135Z,20.50
2018-09-21T03:54:28.328Z,20.40
2018-09-21T03:56:56.609Z,20.60
2018-09-21T03:59:24.810Z,20.50
2018-09-21T04:01:53.193Z,20.50
2018-09-21T04:04:21.429Z,20.50
2018-09-21T04:06:49.650Z,20.30
2018-09-21T04:09:17.851Z,20.60
2018-09-21T04:11:46.111Z,20.60
2018-09-21T04:14:14.370Z,20.50
2018-09-21T04:16:42.642Z,20.50
2018-09-21T04:19:10.894Z,20.50
2018-09-21T04:21:39.122Z,20.40
2018-09-21T04:24:07.344Z,20.20
2018-09-21T04:26:35.585Z,20.20
2018-09-21T04:29:04.170Z,20.20
2018-09-21T04:31:32.412Z,20.20
2018-09-21T04:34:00.722Z,20.30
2018-09-21T04:36:28.975Z,20.20
2018-09-21T04:38:57.181Z,20.00
2018-09-21T04:41:25.425Z,20.10
2018-09-21T04:43:53.654Z,20.10
2018-09-21T04:46:21.863Z,20.10
2018-09-21T04:48:50.130Z,20.10
2018-09-21T04:51:18.392Z,20.00
2018-09-21T04:53:46.646Z,20.00
2018-09-21T04:56:14.893Z,20.00
2018-09-21T04:58:43.116Z,20.00
2018-09-21T05:01:11.331Z,19.90
2018-09-21T05:03:39.547Z,20.10
2018-09-21T05:06:07.774Z,19.90
2018-09-21T05:08:36.035Z,19.40
2018-09-21T05:11:04.241Z,18.80
2018-09-21T05:13:32.517Z,18.80
2018-09-21T05:16:00.762Z,18.80
2018-09-21T05:18:29.276Z,18.80
2018-09-21T05:20:57.495Z,18.60
2018-09-21T05:23:26.082Z,18.30
2018-09-21T05:25:54.348Z,18.50
2018-09-21T05:28:22.562Z,18.60
2018-09-21T05:30:50.825Z,18.20
2018-09-21T05:33:19.115Z,18.20
2018-09-21T05:35:47.327Z,18.20
2018-09-21T05:38:15.631Z,18.30
2018-09-21T05:40:43.919Z,18.20
2018-09-21T05:43:12.191Z,18.20
2018-09-21T05:45:40.443Z,18.10
2018-09-21T05:48:08.676Z,18.10
2018-09-21T05:50:36.937Z,18.20
2018-09-21T05:53:05.698Z,18.20
2018-09-21T05:55:33.921Z,18.30
2018-09-21T05:58:02.377Z,18.20
2018-09-21T06:00:30.646Z,18.20
2018-09-21T06:02:59.077Z,18.30
2018-09-21T06:05:27.133Z,18.30
2018-09-21T06:07:55.477Z,18.20
2018-09-21T06:10:23.708Z,17.90
2018-09-21T06:12:51.918Z,17.90
2018-09-21T06:15:20.867Z,17.80
2018-09-21T06:17:49.078Z,17.70
2018-09-21T06:20:17.354Z,17.40
2018-09-21T06:22:45.656Z,17.30
2018-09-21T06:27:41.938Z,17.10
2018-09-21T06:30:10.274Z,17.20
2018-09-21T06:32:38.522Z,17.20
2018-09-21T06:35:06.769Z,17.20
2018-09-21T06:37:35.002Z,17.20
2018-09-21T06:40:03.279Z,17.10
2018-09-21T06:42:31.497Z,17.20
2018-09-21T06:44:59.735Z,17.30
2018-09-21T06:47:28.022Z,17.30
2018-09-21T06:49:56.397Z,17.40
2018-09-21T06:52:24.595Z,14.90
2018-09-21T06:54:52.814Z,17.30
2018-09-21T06:57:21.034Z,17.30
2018-09-21T06:59:49.408Z,17.20
2018-09-21T07:02:17.902Z,17.30
2018-09-21T07:04:46.159Z,17.20
2018-09-21T07:07:14.492Z,17.20
2018-09-21T07:09:42.814Z,17.10
2018-09-21T07:12:11.062Z,16.80
2018-09-21T07:14:39.326Z,16.80
2018-09-21T07:17:07.597Z,17.00
2018-09-21T07:19:35.849Z,16.90
2018-09-21T07:22:04.142Z,17.00
2018-09-21T07:24:32.404Z,17.00
2018-09-21T07:27:00.650Z,17.30
2018-09-21T07:29:29.174Z,17.30
2018-09-21T07:31:57.374Z,17.40
2018-09-21T07:34:25.628Z,17.50
2018-09-21T07:36:53.883Z,17.40
2018-09-21T07:39:22.154Z,17.60
2018-09-21T07:41:50.466Z,17.50
2018-09-21T07:44:18.731Z,17.40
2018-09-21T07:46:46.984Z,17.50
2018-09-21T07:49:15.321Z,17.60
2018-09-21T07:51:43.698Z,17.90
2018-09-21T07:54:11.955Z,18.00
2018-09-21T07:56:42.233Z,17.90
2018-09-21T07:59:12.903Z,17.80
2018-09-21T08:01:41.218Z,17.60
2018-09-21T08:04:09.532Z,17.40
2018-09-21T08:06:37.766Z,17.40
2018-09-21T08:09:07.578Z,17.20
2018-09-21T08:11:36.370Z,17.20
2018-09-21T08:14:04.966Z,17.20
2018-09-21T08:16:33.633Z,17.50
2018-09-21T08:19:01.982Z,17.30
2018-09-21T08:21:30.206Z,17.10
2018-09-21T08:23:58.526Z,17.20
2018-09-21T08:26:26.856Z,17.50
2018-09-21T08:28:55.260Z,17.80
2018-09-21T08:31:23.481Z,18.30
2018-09-21T08:36:20.798Z,18.30
2018-09-21T08:38:49.045Z,18.20
2018-09-21T08:46:13.610Z,17.90
2018-09-21T08:48:41.862Z,17.50
2018-09-21T08:51:10.503Z,17.10
2018-09-21T08:53:38.850Z,16.90
2018-09-21T08:56:07.199Z,17.00
2018-09-21T08:58:35.430Z,16.90
2018-09-21T09:01:03.697Z,17.30
2018-09-21T09:03:32.167Z,17.30
2018-09-21T09:06:00.397Z,17.40
2018-09-21T09:08:28.621Z,17.90
2018-09-21T09:10:56.891Z,17.80
2018-09-21T09:13:25.187Z,17.60
2018-09-21T09:15:53.485Z,17.00
2018-09-21T09:18:21.838Z,16.70
2018-09-21T09:20:50.053Z,17.10
2018-09-21T09:23:18.812Z,17.10
2018-09-21T09:25:47.038Z,17.30
2018-09-21T09:30:43.372Z,17.30
2018-09-21T09:33:11.614Z,17.50
2018-09-21T09:35:39.838Z,17.60
2018-09-21T09:38:08.195Z,17.70
2018-09-21T09:40:36.409Z,17.50
2018-09-21T09:43:04.697Z,18.10
2018-09-21T09:45:32.893Z,18.10
2018-09-21T09:48:01.153Z,18.60
2018-09-21T09:50:29.408Z,17.50
2018-09-21T09:52:57.750Z,17.40
2018-09-21T09:55:26.101Z,16.90
2018-09-21T09:57:54.322Z,16.80
2018-09-21T10:00:27.989Z,17.10
2018-09-21T10:02:56.202Z,17.10
2018-09-21T10:05:24.482Z,16.70
2018-09-21T10:07:52.707Z,16.70
2018-09-21T10:10:20.989Z,16.90
2018-09-21T10:12:49.222Z,17.40
2018-09-21T10:15:17.733Z,17.40
2018-09-21T10:17:45.933Z,17.60
2018-09-21T10:20:14.237Z,17.30
2018-09-21T10:22:42.463Z,17.40
2018-09-21T10:25:11.127Z,16.80
2018-09-21T10:27:39.546Z,17.10
2018-09-21T10:30:08.585Z,17.40
2018-09-21T10:32:36.904Z,17.80
2018-09-21T10:35:05.379Z,18.00
2018-09-21T10:37:33.604Z,18.80
2018-09-21T10:40:01.882Z,18.80
2018-09-21T10:42:30.175Z,19.20
2018-09-21T10:44:58.478Z,19.60
2018-09-21T10:47:26.783Z,19.40
2018-09-21T10:49:55.046Z,18.80
2018-09-21T10:52:23.337Z,18.10
2018-09-21T10:54:51.597Z,17.90
2018-09-21T10:57:19.810Z,17.50
2018-09-21T10:59:48.065Z,18.10
2018-09-21T11:02:16.415Z,18.50
2018-09-21T11:04:44.634Z,18.30
2018-09-21T11:07:12.951Z,18.30
2018-09-21T11:09:41.206Z,18.30
2018-09-21T11:12:09.485Z,18.30
2018-09-21T11:14:37.751Z,18.00
2018-09-21T11:17:06.125Z,17.60
2018-09-21T11:19:41.099Z,17.60
2018-09-21T11:22:09.382Z,18.40
2018-09-21T11:24:37.611Z,18.30
2018-09-21T11:27:05.937Z,18.20
2018-09-21T11:29:34.282Z,17.70
2018-09-21T11:32:02.530Z,17.40
2018-09-21T11:34:30.766Z,17.10
2018-09-21T11:36:59.059Z,17.20
2018-09-21T11:39:27.279Z,17.40
2018-09-21T11:41:55.535Z,17.50
2018-09-21T11:44:23.810Z,18.10
2018-09-21T11:46:52.152Z,18.00
2018-09-21T11:49:20.281Z,18.10
2018-09-21T11:51:48.547Z,18.00
2018-09-21T11:56:44.857Z,17.10
2018-09-21T11:59:13.175Z,17.50
2018-09-21T12:01:41.479Z,17.30
2018-09-21T12:04:09.682Z,17.40
2018-09-21T12:09:06.594Z,17.80
2018-09-21T12:11:34.974Z,17.60
2018-09-21T12:14:03.287Z,17.40
2018-09-21T12:16:31.668Z,17.10
2018-09-21T12:18:59.954Z,17.40
2018-09-21T12:21:28.151Z,17.60
2018-09-21T12:23:56.401Z,17.30
2018-09-21T12:26:24.630Z,17.20
2018-09-21T12:28:52.882Z,17.40
2018-09-21T12:31:21.317Z,17.80
2018-09-21T12:33:49.696Z,18.00
2018-09-21T12:36:18.148Z,17.90
2018-09-21T12:38:46.370Z,18.00
2018-09-21T12:41:14.557Z,17.70
2018-09-21T12:46:14.181Z,17.00
2018-09-21T12:48:42.458Z,16.80
2018-09-21T12:51:10.663Z,16.70
2018-09-21T12:53:39.554Z,17.00
2018-09-21T12:58:35.934Z,17.50
2018-09-21T13:01:04.174Z,17.20
2018-09-21T13:03:32.394Z,17.10
2018-09-21T13:06:01.010Z,17.50
2018-09-21T13:10:57.271Z,17.30
2018-09-21T13:13:25.506Z,17.30
2018-09-21T13:18:22.622Z,17.20
2018-09-21T13:20:50.866Z,17.40
2018-09-21T13:23:19.787Z,17.50
2018-09-21T13:28:16.081Z,17.40
2018-09-21T13:33:12.363Z,17.90
2018-09-21T13:40:36.595Z,17.50
2018-09-21T13:43:04.892Z,17.60
2018-09-21T13:45:33.109Z,17.60
2018-09-21T13:48:01.654Z,17.90
2018-09-21T13:50:29.915Z,18.10
2018-09-21T13:52:58.146Z,18.00
2018-09-21T13:55:26.414Z,17.60
2018-09-21T13:57:54.665Z,17.70
2018-09-21T14:00:22.896Z,17.30
2018-09-21T14:02:51.201Z,17.10
2018-09-21T14:05:19.523Z,17.20
2018-09-21T14:07:47.743Z,17.40
2018-09-21T14:12:44.018Z,17.40
2018-09-21T14:15:12.263Z,17.60
2018-09-21T14:17:40.588Z,17.70
2018-09-21T14:20:09.297Z,17.60
2018-09-21T14:22:37.585Z,17.80
2018-09-21T14:27:33.773Z,17.40
2018-09-21T14:30:02.022Z,17.40
2018-09-21T14:32:30.317Z,17.40
2018-09-21T14:34:58.533Z,17.20
2018-09-21T14:37:26.826Z,17.20
2018-09-21T14:39:55.030Z,17.20
2018-09-21T14:44:51.402Z,17.10
2018-09-21T14:47:19.848Z,16.90
2018-09-21T14:52:16.136Z,17.30
2018-09-21T14:54:44.354Z,17.30
2018-09-21T14:57:12.625Z,17.20
2018-09-21T14:59:40.912Z,16.90
2018-09-21T15:07:05.228Z,16.70
2018-09-21T15:09:33.457Z,16.60
2018-09-21T15:12:01.714Z,16.60
2018-09-21T15:16:58.069Z,15.90
2018-09-21T15:24:22.909Z,15.70
2018-09-21T15:29:19.170Z,15.80
2018-09-21T15:34:15.395Z,16.10
2018-09-21T15:36:43.635Z,15.90
2018-09-21T15:39:12.493Z,16.10
2018-09-21T15:41:41.499Z,16.40
2018-09-21T15:44:09.727Z,16.30
2018-09-21T15:46:37.992Z,16.40
2018-09-21T15:51:35.342Z,16.00
2018-09-21T15:54:03.673Z,15.90
2018-09-21T15:59:00.277Z,16.20
2018-09-21T16:01:28.669Z,16.20
2018-09-21T16:03:56.918Z,16.00
2018-09-21T16:06:25.255Z,16.10
2018-09-21T16:08:53.502Z,16.20
2018-09-21T16:11:21.750Z,16.20
2018-09-21T16:13:50.098Z,16.10
2018-09-21T16:16:19.274Z,16.00
2018-09-21T16:18:47.598Z,14.70
2018-09-21T16:21:15.929Z,13.90
2018-09-21T16:23:44.151Z,13.50
2018-09-21T16:28:40.610Z,13.60
2018-09-21T16:31:08.831Z,13.70
2018-09-21T16:36:05.241Z,14.00
2018-09-21T16:38:33.536Z,14.10
2018-09-21T16:41:01.958Z,14.20
2018-09-21T16:43:30.210Z,14.30
2018-09-21T16:45:59.272Z,14.60
2018-09-21T16:53:23.956Z,14.80
2018-09-21T16:55:52.371Z,14.80
2018-09-21T16:58:21.035Z,14.60
2018-09-21T17:05:45.658Z,14.50
2018-09-21T17:10:42.330Z,14.90
2018-09-21T17:15:38.711Z,15.40
2018-09-21T17:20:35.269Z,15.30
2018-09-21T17:23:03.546Z,15.40
2018-09-21T17:25:32.327Z,15.50
2018-09-21T17:47:44.792Z,15.20
2018-09-21T17:52:41.123Z,14.80
2018-09-21T17:55:09.526Z,14.90
2018-09-21T17:57:37.870Z,14.60
2018-09-21T18:00:06.235Z,14.60
2018-09-21T18:07:30.670Z,14.70
2018-09-21T18:09:58.863Z,14.80
2018-09-21T18:12:27.078Z,14.80
2018-09-21T18:14:55.346Z,15.00
2018-09-21T18:17:23.639Z,14.50
2018-09-21T18:19:52.005Z,14.50
2018-09-21T18:27:16.243Z,13.90
2018-09-21T18:29:44.499Z,14.00
2018-09-21T18:32:12.806Z,13.90
2018-09-21T18:34:41.154Z,13.80
2018-09-21T18:37:09.457Z,13.90
2018-09-21T18:39:37.800Z,13.70
2018-09-21T18:42:06.074Z,13.60
2018-09-21T18:44:34.307Z,13.70
2018-09-21T18:49:30.494Z,13.80
2018-09-21T18:51:58.825Z,13.80
2018-09-21T19:04:19.234Z,14.30
2018-09-21T19:06:47.516Z,14.20
2018-09-21T19:09:15.779Z,14.30
2018-09-21T19:11:44.102Z,14.50
2018-09-21T19:14:12.339Z,14.50
2018-09-21T19:19:08.678Z,14.60
2018-09-21T19:24:05.875Z,15.10
2018-09-21T19:29:02.199Z,15.20
2018-09-21T19:31:30.486Z,15.30
2018-09-21T19:33:58.720Z,15.10
2018-09-21T19:38:55.134Z,15.10
2018-09-21T19:41:23.414Z,15.20
2018-09-21T19:51:15.758Z,15.00
2018-09-21T19:56:12.042Z,14.50
2018-09-21T19:58:40.282Z,14.30
2018-09-21T20:06:04.719Z,14.50
2018-09-21T20:11:01.190Z,14.50
2018-09-21T20:23:21.422Z,14.80
2018-09-21T20:25:56.339Z,14.80
2018-09-21T20:28:24.602Z,14.60
2018-09-21T20:30:59.161Z,14.30
2018-09-21T20:33:28.401Z,14.30
2018-09-21T20:35:57.332Z,14.40
2018-09-21T20:38:26.179Z,14.40
2018-09-21T20:40:54.458Z,14.20
2018-09-21T20:43:22.953Z,14.30
2018-09-21T20:45:51.214Z,14.30
2018-09-21T20:48:19.541Z,14.30
2018-09-21T20:50:47.963Z,14.40
2018-09-21T20:53:16.226Z,14.40
2018-09-21T20:58:12.621Z,14.60
2018-09-21T21:00:40.881Z,14.60
2018-09-21T21:03:09.146Z,14.60
2018-09-21T21:05:37.465Z,14.50
2018-09-21T21:08:06.081Z,14.50
2018-09-21T21:10:34.376Z,14.60
2018-09-21T21:13:02.723Z,14.60
2018-09-21T21:17:58.949Z,14.70
2018-09-21T21:20:27.301Z,14.70
2018-09-21T21:22:56.401Z,14.80
2018-09-21T21:25:24.667Z,14.80
2018-09-21T21:27:53.754Z,14.80
2018-09-21T21:30:22.006Z,15.10
2018-09-21T21:32:50.326Z,15.20
2018-09-21T21:35:18.598Z,15.10
2018-09-21T21:37:46.870Z,15.40
2018-09-21T21:40:15.098Z,14.90
2018-09-21T21:42:43.306Z,14.70
2018-09-21T21:45:11.555Z,14.70
2018-09-21T21:47:39.809Z,14.60
2018-09-21T21:50:08.188Z,14.80
2018-09-21T21:55:04.530Z,14.80
2018-09-21T21:57:32.794Z,15.00
2018-09-21T22:00:00.998Z,14.70
2018-09-21T22:02:33.476Z,14.60
2018-09-21T22:05:01.701Z,14.70
2018-09-21T22:07:33.325Z,14.90
2018-09-21T22:10:02.489Z,14.90
2018-09-21T22:12:36.149Z,15.10
2018-09-21T22:15:04.411Z,15.00
2018-09-21T22:17:32.652Z,15.00
2018-09-21T22:20:00.925Z,14.90
2018-09-21T22:22:29.167Z,15.00
2018-09-21T22:24:57.457Z,14.90
2018-09-21T22:27:25.730Z,14.90
2018-09-21T22:29:54.013Z,15.00
2018-09-21T22:32:22.327Z,15.00
2018-09-21T22:34:50.604Z,15.20
2018-09-21T22:39:47.013Z,15.30
2018-09-21T22:42:15.271Z,15.30
2018-09-21T22:44:43.586Z,14.80
2018-09-21T22:47:11.850Z,14.80
2018-09-21T22:49:40.125Z,14.60
2018-09-21T22:52:08.406Z,14.50
2018-09-21T22:54:37.121Z,14.40
2018-09-21T22:57:05.362Z,14.50
2018-09-21T22:59:33.581Z,14.50
2018-09-21T23:02:01.825Z,14.70
2018-09-21T23:04:30.074Z,14.30
2018-09-21T23:06:58.287Z,13.90
2018-09-21T23:09:26.498Z,14.00
2018-09-21T23:11:54.764Z,13.90
2018-09-21T23:14:22.978Z,14.00
2018-09-21T23:16:51.549Z,14.10
2018-09-21T23:19:19.753Z,13.90
2018-09-21T23:21:47.966Z,14.20
2018-09-21T23:24:16.226Z,14.30
2018-09-21T23:26:44.430Z,14.30
2018-09-21T23:29:15.715Z,14.10
2018-09-21T23:34:12.051Z,14.10
2018-09-21T23:36:40.362Z,14.10
2018-09-21T23:39:09.246Z,14.20
2018-09-21T23:41:37.688Z,14.30
2018-09-21T23:46:34.106Z,14.60
2018-09-21T23:49:02.333Z,14.70
2018-09-21T23:51:30.593Z,14.60
2018-09-21T23:53:58.842Z,14.70
2018-09-21T23:56:27.053Z,14.80
2018-09-21T23:58:55.365Z,14.40
